Overview Statistics Trail Chart Weather Telemetry Raw packets
 

This is the latest recevied weather packets stored in our database for station/object K7MT-WX. If no packets are shown the sender has not sent any weather packets the latest 10 day(s).

<< 27 28 29 30 31 32 33 >>
Time Temp. Humidity Pressure Rain* Wind** Luminosity Snow
1787992228 16.67° C 75% 1014.2 hPa 0 mm - - -
1787991328 16.67° C 79% 1014.2 hPa 0 mm - - -
1787990428 16.11° C 80% 1014.3 hPa 0 mm - - -
1787989528 16.67° C 81% 1014.2 hPa 0 mm - - -
1787988628 17.22° C 77% 1014.2 hPa 0 mm - - -
1787987728 18.33° C 68% 1013.9 hPa 0 mm - - -
1787986828 18.89° C 67% 1013.8 hPa 0 mm - - -
1787985928 18.89° C 64% 1013.9 hPa 0 mm - - -
1787985028 18.33° C 71% 1013.8 hPa 0 mm - - -
1787984131 17.22° C 80% 1013.9 hPa 0 mm - - -
1787983228 17.22° C 78% 1013.9 hPa 0 mm - - -
1787982328 17.22° C 78% 1013.9 hPa 0 mm - - -
1787981428 17.22° C 78% 1013.7 hPa 0 mm - - -
1787980528 17.78° C 76% 1013.5 hPa 0 mm - - -
1787979628 17.78° C 76% 1013.4 hPa 0 mm - - -
1787978728 17.78° C 75% 1013.5 hPa 0 mm - - -
1787977828 17.22° C 82% 1013.7 hPa 0 mm - - -
1787976928 17.22° C 85% 1013.5 hPa 0 mm - - -
1787976028 16.67° C 85% 1013.4 hPa 0 mm - - -
1787975128 16.67° C 86% 1013.6 hPa 0 mm - - -
1787974228 16.11° C 86% 1013.4 hPa 0 mm - - -
1787973328 16.67° C 85% 1013.1 hPa 0 mm - - -
1787972428 16.67° C 84% 1013 hPa 0 mm - - -
1787971528 17.22° C 84% 1012.6 hPa 0 mm - - -
1787970628 17.22° C 83% 1013 hPa 0 mm - - -

* Rain latest hour (hover to see other rain measurements)
** Current wind speed in m/s (hover to see current wind gust speed)